Time;durP1;ratioP1;P1;durP2;ratioP2;P2;SDS_P1;SDS_P2;PMS_P1;PMS_P2;Temp;Humidity;BMP_temperature;BMP_pressure;BME280_temperature;BME280_humidity;BME280_pressure;Samples;Min_cycle;Max_cycle;Signal;HPM_P1;HPM_P2
2022/06/27 00:00:14;;;;;;;8.35;7.65;;;;;;;;;;2051220;28;20293;-58
2022/06/27 00:01:14;;;;;;;7.80;7.20;;;;;;;;;;2050285;28;20230;-60
2022/06/27 00:02:15;;;;;;;8.20;7.45;;;;;;;;;;2049260;28;20182;-60
2022/06/27 00:03:15;;;;;;;8.27;7.47;;;;;;;;;;2050604;28;20394;-58
2022/06/27 00:04:15;;;;;;;8.10;7.32;;;;;;;;;;2057046;28;20221;-57
2022/06/27 00:05:16;;;;;;;8.55;7.72;;;;;;;;;;2057924;28;20185;-58
2022/06/27 00:06:19;;;;;;;8.00;7.22;;;;;;;;;;2050280;28;20250;-58
2022/06/27 00:07:20;;;;;;;10.50;7.47;;;;;;;;;;2050668;28;20195;-58
2022/06/27 00:08:20;;;;;;;8.85;7.93;;;;;;;;;;2050053;28;20178;-57
2022/06/27 00:09:20;;;;;;;8.60;7.70;;;;;;;;;;2050427;28;20183;-59
2022/06/27 00:10:21;;;;;;;7.68;6.97;;;;;;;;;;2050306;28;20191;-58
2022/06/27 00:11:21;;;;;;;8.70;7.93;;;;;;;;;;2047806;28;20652;-60
2022/06/27 00:12:22;;;;;;;8.13;7.45;;;;;;;;;;2049930;28;20731;-58
2022/06/27 00:13:22;;;;;;;7.90;7.30;;;;;;;;;;2048047;28;20294;-57
2022/06/27 00:14:22;;;;;;;9.23;8.43;;;;;;;;;;2049188;28;20719;-58
2022/06/27 00:15:23;;;;;;;8.90;8.07;;;;;;;;;;2049552;28;20215;-60
2022/06/27 00:16:24;;;;;;;8.07;7.35;;;;;;;;;;2050208;29;20683;-60
2022/06/27 00:17:24;;;;;;;8.82;8.02;;;;;;;;;;2049877;28;20206;-58
2022/06/27 00:18:25;;;;;;;8.48;7.88;;;;;;;;;;2049504;28;20174;-58
2022/06/27 00:19:25;;;;;;;8.68;7.88;;;;;;;;;;2048048;28;20556;-57
2022/06/27 00:20:25;;;;;;;8.32;7.72;;;;;;;;;;2050100;28;20199;-57
2022/06/27 00:21:26;;;;;;;8.73;7.93;;;;;;;;;;2051129;28;20187;-58
2022/06/27 00:22:27;;;;;;;7.82;7.28;;;;;;;;;;2051354;28;20167;-57
2022/06/27 00:23:27;;;;;;;9.57;8.75;;;;;;;;;;2058369;28;20894;-56
2022/06/27 00:24:27;;;;;;;8.50;7.72;;;;;;;;;;2057338;28;20193;-58
2022/06/27 00:25:27;;;;;;;9.60;8.50;;;;;;;;;;2058396;28;20170;-55
2022/06/27 00:26:28;;;;;;;9.15;8.35;;;;;;;;;;2058144;28;20178;-60
2022/06/27 00:27:29;;;;;;;8.73;8.05;;;;;;;;;;2051026;28;20182;-57
2022/06/27 00:28:29;;;;;;;9.52;8.70;;;;;;;;;;2051410;28;20179;-58
2022/06/27 00:29:30;;;;;;;9.07;8.30;;;;;;;;;;2051214;28;20202;-60
2022/06/27 00:30:30;;;;;;;9.50;8.70;;;;;;;;;;2058356;28;20205;-56
2022/06/27 00:31:30;;;;;;;10.52;9.45;;;;;;;;;;2058590;28;20241;-56
2022/06/27 00:32:31;;;;;;;10.50;9.60;;;;;;;;;;2057317;28;20225;-55
2022/06/27 00:33:31;;;;;;;9.93;8.93;;;;;;;;;;2051234;28;20183;-57
2022/06/27 00:34:31;;;;;;;10.02;8.98;;;;;;;;;;2050038;28;20180;-58
2022/06/27 00:35:32;;;;;;;10.10;8.95;;;;;;;;;;2051301;29;20226;-58
2022/06/27 00:36:32;;;;;;;11.30;10.15;;;;;;;;;;2050822;28;20178;-59
2022/06/27 00:37:33;;;;;;;10.60;9.40;;;;;;;;;;2050476;28;20621;-57
2022/06/27 00:38:33;;;;;;;10.77;9.88;;;;;;;;;;2050547;29;20213;-55
2022/06/27 00:39:33;;;;;;;10.60;9.70;;;;;;;;;;2050390;28;20175;-57
2022/06/27 00:40:34;;;;;;;11.25;10.25;;;;;;;;;;2048192;29;20179;-58
2022/06/27 00:41:34;;;;;;;10.95;9.93;;;;;;;;;;2050575;28;20199;-56
2022/06/27 00:42:35;;;;;;;11.23;10.18;;;;;;;;;;2050244;29;20179;-60
2022/06/27 00:43:35;;;;;;;9.90;9.00;;;;;;;;;;2051167;28;20182;-57
2022/06/27 00:44:37;;;;;;;11.32;10.23;;;;;;;;;;2049139;28;20233;-57
2022/06/27 00:45:37;;;;;;;11.30;10.35;;;;;;;;;;2050651;28;20179;-60
2022/06/27 00:46:38;;;;;;;10.60;9.50;;;;;;;;;;2051279;29;20178;-58
2022/06/27 00:47:38;;;;;;;11.43;10.30;;;;;;;;;;2050484;28;20190;-57
2022/06/27 00:48:39;;;;;;;10.55;9.65;;;;;;;;;;2050644;29;20171;-58
2022/06/27 00:49:40;;;;;;;11.63;10.43;;;;;;;;;;2050908;28;20186;-57
2022/06/27 00:50:40;;;;;;;11.15;10.15;;;;;;;;;;2057830;28;20187;-59
2022/06/27 00:51:41;;;;;;;11.40;10.45;;;;;;;;;;2049932;29;20187;-58
2022/06/27 00:52:41;;;;;;;11.43;10.50;;;;;;;;;;2050342;28;20185;-57
2022/06/27 00:53:41;;;;;;;11.60;10.63;;;;;;;;;;2051001;28;20190;-57
2022/06/27 00:54:43;;;;;;;11.13;10.13;;;;;;;;;;2049865;28;20178;-57
2022/06/27 00:55:44;;;;;;;12.45;11.25;;;;;;;;;;2050743;28;20275;-59
2022/06/27 00:56:44;;;;;;;11.88;10.65;;;;;;;;;;2058423;28;20260;-57
2022/06/27 00:57:45;;;;;;;11.30;10.30;;;;;;;;;;2057549;28;20233;-60
2022/06/27 00:58:45;;;;;;;11.88;10.77;;;;;;;;;;2058263;28;20245;-57
2022/06/27 00:59:46;;;;;;;11.40;10.30;;;;;;;;;;2057143;28;20278;-61
2022/06/27 01:00:46;;;;;;;12.07;11.05;;;;;;;;;;2057362;28;20217;-60
2022/06/27 01:01:47;;;;;;;12.00;10.98;;;;;;;;;;2057898;28;20178;-57
2022/06/27 01:02:47;;;;;;;13.75;11.00;;;;;;;;;;2058338;28;20250;-57
2022/06/27 01:03:47;;;;;;;12.27;11.13;;;;;;;;;;2050588;29;20175;-57
2022/06/27 01:04:48;;;;;;;12.18;10.98;;;;;;;;;;2049781;29;20206;-57
2022/06/27 01:05:51;;;;;;;13.32;12.13;;;;;;;;;;2050294;28;20669;-57
2022/06/27 01:06:51;;;;;;;12.75;11.32;;;;;;;;;;2048557;28;20191;-58
2022/06/27 01:07:52;;;;;;;12.32;11.15;;;;;;;;;;2050314;28;20262;-57
2022/06/27 01:08:52;;;;;;;11.50;10.40;;;;;;;;;;2049909;28;20257;-58
2022/06/27 01:09:53;;;;;;;12.48;11.30;;;;;;;;;;2049776;28;20254;-58
2022/06/27 01:10:53;;;;;;;12.18;11.07;;;;;;;;;;2049986;28;20175;-59
2022/06/27 01:11:53;;;;;;;12.73;11.43;;;;;;;;;;2048898;28;20249;-58
2022/06/27 01:12:54;;;;;;;12.60;11.35;;;;;;;;;;2048944;28;20182;-58
2022/06/27 01:13:55;;;;;;;12.57;11.38;;;;;;;;;;2056562;28;20162;-56
2022/06/27 01:14:55;;;;;;;12.85;11.65;;;;;;;;;;2049304;28;20194;-58
2022/06/27 01:15:57;;;;;;;13.52;12.13;;;;;;;;;;2055519;28;20229;-58
2022/06/27 01:16:57;;;;;;;12.20;11.13;;;;;;;;;;2057303;28;20197;-58
2022/06/27 01:17:58;;;;;;;13.18;11.88;;;;;;;;;;2049150;28;20179;-58
2022/06/27 01:19:00;;;;;;;13.15;11.90;;;;;;;;;;2050163;28;20674;-56
2022/06/27 01:20:01;;;;;;;14.45;11.15;;;;;;;;;;2049722;28;20479;-59
2022/06/27 01:21:01;;;;;;;13.05;11.95;;;;;;;;;;2049968;28;20170;-58
2022/06/27 01:22:06;;;;;;;13.63;12.32;;;;;;;;;;2057909;28;20257;-54
2022/06/27 01:23:06;;;;;;;13.43;12.18;;;;;;;;;;2057585;28;20177;-57
2022/06/27 01:24:07;;;;;;;12.73;11.63;;;;;;;;;;2049829;28;20197;-58
2022/06/27 01:25:08;;;;;;;13.60;12.30;;;;;;;;;;2050160;28;20191;-58
2022/06/27 01:26:09;;;;;;;14.07;12.65;;;;;;;;;;2049779;28;20201;-57
2022/06/27 01:27:10;;;;;;;13.20;11.70;;;;;;;;;;2057931;28;20185;-58
2022/06/27 01:28:10;;;;;;;14.05;12.68;;;;;;;;;;2053162;28;20207;-56
2022/06/27 01:29:11;;;;;;;13.93;12.50;;;;;;;;;;2049883;29;20244;-57
2022/06/27 01:30:12;;;;;;;14.82;13.30;;;;;;;;;;2050194;28;20201;-60
2022/06/27 01:31:13;;;;;;;14.18;12.93;;;;;;;;;;2051090;28;20221;-57
2022/06/27 01:32:13;;;;;;;14.57;13.27;;;;;;;;;;2050606;28;20285;-58
2022/06/27 01:33:14;;;;;;;14.07;12.88;;;;;;;;;;2050662;28;20678;-58
2022/06/27 01:34:15;;;;;;;14.75;13.32;;;;;;;;;;2050009;28;20175;-57
2022/06/27 01:35:17;;;;;;;14.65;13.25;;;;;;;;;;2050235;28;20243;-58
2022/06/27 01:37:37;;;;;;;12.80;11.60;;;;;;;;;;2057642;28;20181;-56
2022/06/27 01:38:37;;;;;;;13.60;12.32;;;;;;;;;;2050066;28;20217;-55
2022/06/27 01:39:38;;;;;;;15.05;12.75;;;;;;;;;;2053254;28;20209;-57
2022/06/27 01:40:39;;;;;;;13.85;12.52;;;;;;;;;;2050064;28;20171;-57
2022/06/27 01:41:44;;;;;;;13.35;12.02;;;;;;;;;;2050341;28;20245;-56
2022/06/27 01:42:44;;;;;;;14.13;12.82;;;;;;;;;;2050206;28;20594;-58
2022/06/27 01:43:45;;;;;;;14.30;13.00;;;;;;;;;;2050180;28;20194;-57
2022/06/27 01:44:46;;;;;;;14.13;12.93;;;;;;;;;;2056829;28;20587;-57
2022/06/27 01:45:48;;;;;;;14.13;12.68;;;;;;;;;;2051030;28;20178;-55
2022/06/27 01:47:00;;;;;;;14.48;13.18;;;;;;;;;;2050841;29;20186;-56
2022/06/27 01:48:01;;;;;;;14.43;13.00;;;;;;;;;;2058564;28;20218;-59
2022/06/27 01:49:01;;;;;;;14.23;13.02;;;;;;;;;;2058011;28;20185;-59
2022/06/27 01:50:02;;;;;;;14.60;13.18;;;;;;;;;;2058070;28;20193;-57
2022/06/27 01:51:09;;;;;;;13.77;12.43;;;;;;;;;;2050239;28;20171;-58
2022/06/27 01:52:12;;;;;;;15.02;13.45;;;;;;;;;;2035017;29;20208;-59
2022/06/27 01:53:12;;;;;;;18.35;13.77;;;;;;;;;;2034855;29;20215;-55
2022/06/27 01:54:13;;;;;;;14.18;12.82;;;;;;;;;;2041782;29;20180;-57
2022/06/27 01:55:14;;;;;;;15.48;13.98;;;;;;;;;;2050166;28;20186;-58
2022/06/27 01:56:18;;;;;;;14.88;13.38;;;;;;;;;;2058063;28;20265;-58
2022/06/27 01:57:19;;;;;;;14.43;12.98;;;;;;;;;;2058090;28;20171;-58
2022/06/27 01:58:21;;;;;;;15.75;14.15;;;;;;;;;;2058208;28;20178;-55
2022/06/27 01:59:27;;;;;;;16.00;14.50;;;;;;;;;;2057350;28;20611;-58
2022/06/27 02:00:29;;;;;;;16.10;14.50;;;;;;;;;;2050861;28;20278;-58
2022/06/27 02:01:33;;;;;;;16.33;14.80;;;;;;;;;;2051088;28;20186;-56
2022/06/27 02:02:33;;;;;;;17.02;15.13;;;;;;;;;;2051534;28;20270;-58
2022/06/27 02:03:34;;;;;;;17.48;15.68;;;;;;;;;;2051737;29;20651;-57
2022/06/27 02:04:34;;;;;;;16.33;14.63;;;;;;;;;;2043179;29;20186;-58
2022/06/27 02:05:35;;;;;;;14.98;13.45;;;;;;;;;;2052319;28;20207;-57
2022/06/27 02:06:35;;;;;;;16.20;14.70;;;;;;;;;;2060668;28;20544;-56
2022/06/27 02:07:42;;;;;;;17.30;15.60;;;;;;;;;;2045143;29;20652;-57
2022/06/27 02:08:46;;;;;;;16.48;14.75;;;;;;;;;;2045004;28;20624;-57
2022/06/27 02:09:47;;;;;;;16.65;15.00;;;;;;;;;;2050608;28;20175;-56
2022/06/27 02:10:48;;;;;;;16.83;14.98;;;;;;;;;;2042615;29;20168;-56
2022/06/27 02:11:49;;;;;;;17.02;15.43;;;;;;;;;;2050767;28;20711;-56
2022/06/27 02:12:51;;;;;;;16.60;14.93;;;;;;;;;;2051096;29;20179;-57
2022/06/27 02:13:52;;;;;;;17.02;14.75;;;;;;;;;;2051743;29;20175;-58
2022/06/27 02:14:54;;;;;;;16.48;14.98;;;;;;;;;;2059441;28;20632;-53
2022/06/27 02:16:16;;;;;;;18.65;15.95;;;;;;;;;;2057330;28;20655;-53
2022/06/27 02:17:17;;;;;;;18.23;16.52;;;;;;;;;;2052206;28;20175;-56
2022/06/27 02:18:18;;;;;;;17.08;15.32;;;;;;;;;;2044097;28;20174;-55
2022/06/27 02:19:19;;;;;;;18.10;16.30;;;;;;;;;;2051589;28;20207;-58
2022/06/27 02:20:19;;;;;;;17.20;15.60;;;;;;;;;;2040440;29;20573;-56
2022/06/27 02:21:22;;;;;;;17.30;15.38;;;;;;;;;;2052269;28;20202;-58
2022/06/27 02:22:22;;;;;;;17.27;15.50;;;;;;;;;;2059601;28;20278;-53
2022/06/27 02:23:23;;;;;;;16.83;15.30;;;;;;;;;;2051502;29;20208;-57
2022/06/27 02:24:25;;;;;;;20.80;15.57;;;;;;;;;;2050531;28;20206;-54
2022/06/27 02:25:26;;;;;;;23.27;17.80;;;;;;;;;;2050804;28;20179;-55
2022/06/27 02:26:30;;;;;;;23.80;18.85;;;;;;;;;;2058548;28;20178;-55
2022/06/27 02:27:30;;;;;;;24.88;19.65;;;;;;;;;;2051576;28;20173;-54
2022/06/27 02:28:32;;;;;;;23.30;19.20;;;;;;;;;;2059037;28;20209;-57
2022/06/27 02:29:35;;;;;;;26.23;19.45;;;;;;;;;;2058849;28;20182;-56
2022/06/27 02:30:35;;;;;;;20.92;18.73;;;;;;;;;;2059471;28;20181;-56
2022/06/27 02:31:43;;;;;;;23.33;18.83;;;;;;;;;;2052187;28;20246;-57
2022/06/27 02:32:44;;;;;;;19.98;17.85;;;;;;;;;;2051854;28;20171;-56
2022/06/27 02:33:45;;;;;;;21.92;19.52;;;;;;;;;;2051536;28;20233;-57
2022/06/27 02:34:47;;;;;;;21.45;19.15;;;;;;;;;;2058066;28;20255;-57
2022/06/27 02:35:49;;;;;;;23.10;20.13;;;;;;;;;;2051065;28;20190;-57
2022/06/27 02:36:49;;;;;;;20.92;18.83;;;;;;;;;;2044761;28;20210;-57
2022/06/27 02:37:49;;;;;;;23.05;20.45;;;;;;;;;;2043220;28;20573;-57
2022/06/27 02:38:52;;;;;;;23.23;20.73;;;;;;;;;;2042781;28;20184;-57
2022/06/27 02:39:53;;;;;;;23.08;19.85;;;;;;;;;;2050551;28;20241;-58
2022/06/27 02:40:54;;;;;;;22.25;19.95;;;;;;;;;;2042667;28;20183;-58
2022/06/27 02:41:57;;;;;;;24.65;19.15;;;;;;;;;;2035238;29;20255;-57
2022/06/27 02:42:59;;;;;;;23.05;20.35;;;;;;;;;;2042830;29;20751;-56
2022/06/27 02:44:01;;;;;;;22.25;20.08;;;;;;;;;;2042907;29;20175;-57
2022/06/27 02:45:01;;;;;;;23.10;20.65;;;;;;;;;;2044694;29;20175;-57
2022/06/27 02:46:02;;;;;;;22.48;20.13;;;;;;;;;;2051381;28;20666;-57
2022/06/27 02:47:03;;;;;;;25.40;20.02;;;;;;;;;;2050491;28;20182;-58
2022/06/27 02:48:03;;;;;;;21.67;19.38;;;;;;;;;;2050660;28;20179;-58
2022/06/27 02:49:04;;;;;;;20.98;18.77;;;;;;;;;;2050759;28;20210;-58
2022/06/27 02:50:05;;;;;;;21.70;19.35;;;;;;;;;;2050185;28;20191;-57
2022/06/27 02:51:12;;;;;;;21.23;19.13;;;;;;;;;;2058282;28;20667;-58
2022/06/27 02:52:17;;;;;;;22.55;20.08;;;;;;;;;;2058695;28;20667;-57
2022/06/27 02:53:29;;;;;;;21.25;18.63;;;;;;;;;;2058750;28;20178;-58
2022/06/27 02:54:54;;;;;;;20.63;18.52;;;;;;;;;;2057507;28;20170;-57
2022/06/27 02:56:02;;;;;;;20.98;18.73;;;;;;;;;;2048434;28;20572;-57
2022/06/27 02:57:07;;;;;;;22.00;19.80;;;;;;;;;;2048063;28;20171;-59
2022/06/27 02:58:16;;;;;;;20.90;18.83;;;;;;;;;;2058361;28;20201;-59
2022/06/27 02:59:23;;;;;;;20.80;18.23;;;;;;;;;;2058588;28;20170;-55
2022/06/27 03:00:24;;;;;;;22.55;19.60;;;;;;;;;;2074745;22;21384;-55
2022/06/27 03:01:26;;;;;;;21.15;18.85;;;;;;;;;;2064373;28;20213;-56
2022/06/27 03:02:28;;;;;;;20.58;18.48;;;;;;;;;;2065035;28;20741;-54
2022/06/27 03:03:44;;;;;;;19.65;17.75;;;;;;;;;;2059011;28;20270;-59
2022/06/27 03:04:45;;;;;;;20.58;18.38;;;;;;;;;;2063922;28;20552;-59
2022/06/27 03:05:55;;;;;;;21.33;19.13;;;;;;;;;;2066459;28;20174;-59
2022/06/27 03:06:55;;;;;;;20.00;18.10;;;;;;;;;;2067927;28;20600;-57
2022/06/27 03:07:56;;;;;;;21.38;19.13;;;;;;;;;;2057261;28;20249;-56
2022/06/27 03:08:57;;;;;;;19.88;17.92;;;;;;;;;;2072889;28;20189;-54
2022/06/27 03:10:03;;;;;;;18.77;16.85;;;;;;;;;;2081202;28;20177;-57
2022/06/27 03:11:05;;;;;;;18.52;16.65;;;;;;;;;;2065828;28;20180;-57
2022/06/27 03:12:06;;;;;;;20.40;18.17;;;;;;;;;;2065304;28;20212;-56
2022/06/27 03:13:07;;;;;;;18.98;17.20;;;;;;;;;;2064856;28;20235;-53
2022/06/27 03:14:08;;;;;;;20.25;18.17;;;;;;;;;;2064397;28;20193;-57
2022/06/27 03:15:08;;;;;;;19.55;17.50;;;;;;;;;;2065464;28;20169;-60
2022/06/27 03:16:10;;;;;;;20.58;18.42;;;;;;;;;;2072643;28;20204;-57
2022/06/27 03:17:10;;;;;;;20.17;18.02;;;;;;;;;;2066531;28;20170;-56
2022/06/27 03:18:30;;;;;;;21.00;18.85;;;;;;;;;;2065252;28;20317;-58
2022/06/27 03:19:53;;;;;;;20.48;18.38;;;;;;;;;;2061983;28;20280;-57
2022/06/27 03:21:07;;;;;;;19.58;17.67;;;;;;;;;;2065482;28;20185;-56
2022/06/27 03:22:12;;;;;;;19.73;17.70;;;;;;;;;;2065464;28;20245;-56
2022/06/27 03:23:12;;;;;;;19.88;17.98;;;;;;;;;;2065482;28;20249;-59
2022/06/27 03:24:17;;;;;;;19.23;17.30;;;;;;;;;;2057012;28;20181;-54
2022/06/27 03:25:17;;;;;;;18.45;16.80;;;;;;;;;;2063465;28;20178;-55
2022/06/27 03:26:18;;;;;;;18.35;16.27;;;;;;;;;;2073441;28;20177;-57
2022/06/27 03:27:23;;;;;;;18.98;17.23;;;;;;;;;;2065460;28;20264;-54
2022/06/27 03:28:27;;;;;;;20.08;17.95;;;;;;;;;;2065611;28;20180;-60
2022/06/27 03:29:32;;;;;;;19.02;17.17;;;;;;;;;;2065077;28;20694;-57
2022/06/27 03:30:32;;;;;;;19.10;17.17;;;;;;;;;;2073335;28;20252;-53
2022/06/27 03:31:34;;;;;;;18.25;16.55;;;;;;;;;;2072144;28;20239;-59
2022/06/27 03:32:37;;;;;;;16.77;15.18;;;;;;;;;;2065409;28;20552;-60
2022/06/27 03:33:41;;;;;;;19.08;17.27;;;;;;;;;;2064621;28;20239;-58
2022/06/27 03:34:56;;;;;;;17.42;15.77;;;;;;;;;;2067953;28;20173;-57
2022/06/27 03:35:57;;;;;;;19.67;16.92;;;;;;;;;;2064780;28;20228;-56
2022/06/27 03:36:58;;;;;;;17.33;15.73;;;;;;;;;;2065205;28;20240;-59
2022/06/27 03:37:59;;;;;;;19.42;17.63;;;;;;;;;;2065247;28;20256;-58
2022/06/27 03:38:59;;;;;;;17.73;16.02;;;;;;;;;;2065258;28;20193;-60
2022/06/27 03:40:00;;;;;;;18.80;16.98;;;;;;;;;;2065035;28;20173;-58
2022/06/27 03:41:01;;;;;;;18.20;16.40;;;;;;;;;;2063441;28;20173;-59
2022/06/27 03:42:02;;;;;;;19.25;17.23;;;;;;;;;;2063569;28;20169;-58
2022/06/27 03:43:03;;;;;;;18.67;16.88;;;;;;;;;;2065086;28;20186;-58
2022/06/27 03:44:04;;;;;;;19.35;17.48;;;;;;;;;;2064266;28;20246;-54
2022/06/27 03:45:05;;;;;;;19.50;17.67;;;;;;;;;;2073382;28;20598;-59
2022/06/27 03:46:06;;;;;;;16.90;15.40;;;;;;;;;;2064856;28;20272;-58
2022/06/27 03:47:06;;;;;;;18.38;16.67;;;;;;;;;;2064722;28;20238;-57
2022/06/27 03:50:03;;;;;;;17.52;15.90;;;;;;;;;;2070121;28;20233;-57
2022/06/27 03:51:13;;;;;;;16.75;14.95;;;;;;;;;;2081255;28;20168;-58
2022/06/27 03:52:13;;;;;;;16.70;14.93;;;;;;;;;;2072230;28;20611;-58
2022/06/27 03:53:13;;;;;;;17.20;15.40;;;;;;;;;;2057124;28;20170;-58
2022/06/27 03:54:14;;;;;;;16.73;15.13;;;;;;;;;;2064051;28;20162;-55
2022/06/27 03:55:14;;;;;;;16.85;15.35;;;;;;;;;;2064890;28;20170;-59
2022/06/27 03:56:15;;;;;;;15.35;13.95;;;;;;;;;;2064990;28;20169;-56
2022/06/27 03:57:15;;;;;;;15.75;14.20;;;;;;;;;;2072880;28;20189;-56
2022/06/27 03:58:16;;;;;;;14.23;12.93;;;;;;;;;;2073162;28;20161;-56
2022/06/27 03:59:16;;;;;;;13.77;12.50;;;;;;;;;;2056997;28;20719;-56
2022/06/27 04:00:18;;;;;;;13.90;12.60;;;;;;;;;;2072801;28;20193;-57
2022/06/27 04:01:23;;;;;;;13.27;11.98;;;;;;;;;;2072424;28;20677;-58
2022/06/27 04:02:26;;;;;;;13.30;12.00;;;;;;;;;;2071128;28;20185;-55
2022/06/27 04:03:47;;;;;;;13.02;11.93;;;;;;;;;;2073198;28;20189;-60
2022/06/27 04:04:50;;;;;;;13.43;12.23;;;;;;;;;;2072093;28;20173;-60
2022/06/27 04:05:50;;;;;;;13.10;11.93;;;;;;;;;;2065003;28;20205;-61
2022/06/27 04:06:50;;;;;;;14.15;12.77;;;;;;;;;;2072647;28;20173;-55
2022/06/27 04:07:52;;;;;;;14.18;12.88;;;;;;;;;;2064649;28;20254;-56
2022/06/27 04:08:52;;;;;;;13.82;12.52;;;;;;;;;;2068683;28;20716;-56
2022/06/27 04:09:52;;;;;;;12.35;11.35;;;;;;;;;;2072967;28;20172;-59
2022/06/27 04:10:54;;;;;;;14.18;12.63;;;;;;;;;;2070597;28;20694;-58
2022/06/27 04:12:00;;;;;;;15.00;13.48;;;;;;;;;;2067386;28;20201;-56
2022/06/27 04:13:19;;;;;;;13.85;12.57;;;;;;;;;;2069841;28;20675;-59
2022/06/27 04:14:38;;;;;;;13.82;12.60;;;;;;;;;;2064818;28;20166;-59
2022/06/27 04:15:57;;;;;;;13.35;12.13;;;;;;;;;;2064999;28;20185;-57
2022/06/27 04:17:16;;;;;;;14.35;12.95;;;;;;;;;;2065162;28;20196;-57
2022/06/27 04:18:39;;;;;;;13.43;12.32;;;;;;;;;;2065441;28;20266;-60
2022/06/27 04:19:42;;;;;;;14.40;13.00;;;;;;;;;;2065633;28;20599;-58
2022/06/27 04:21:15;;;;;;;14.05;12.85;;;;;;;;;;2048557;29;20703;-58
2022/06/27 04:22:24;;;;;;;14.05;12.77;;;;;;;;;;2063065;28;20245;-55
2022/06/27 04:23:30;;;;;;;14.02;12.68;;;;;;;;;;2073235;28;20599;-61
2022/06/27 04:24:46;;;;;;;13.52;12.18;;;;;;;;;;2062697;28;20195;-59
2022/06/27 04:25:51;;;;;;;13.73;12.38;;;;;;;;;;2064715;28;20662;-58
2022/06/27 04:26:52;;;;;;;12.25;11.20;;;;;;;;;;2065038;28;20173;-58
2022/06/27 04:27:52;;;;;;;13.30;12.20;;;;;;;;;;2070935;28;20176;-58
2022/06/27 04:28:54;;;;;;;13.38;12.07;;;;;;;;;;2081062;28;20736;-58
2022/06/27 04:29:54;;;;;;;13.20;11.93;;;;;;;;;;2072715;28;20244;-58
2022/06/27 04:30:56;;;;;;;13.75;12.48;;;;;;;;;;2056824;28;20178;-58
2022/06/27 04:31:57;;;;;;;15.32;11.80;;;;;;;;;;2071122;28;20582;-56
2022/06/27 04:32:59;;;;;;;13.40;12.30;;;;;;;;;;2073185;28;20176;-58
2022/06/27 04:33:59;;;;;;;12.43;11.30;;;;;;;;;;2056204;28;20218;-55
2022/06/27 04:35:01;;;;;;;12.60;11.50;;;;;;;;;;2072973;28;20319;-59
2022/06/27 04:36:02;;;;;;;12.48;11.18;;;;;;;;;;2064806;28;20176;-57
2022/06/27 04:37:03;;;;;;;12.88;11.77;;;;;;;;;;2056915;28;20186;-57
2022/06/27 04:38:08;;;;;;;12.80;11.50;;;;;;;;;;2049363;28;20222;-58
2022/06/27 04:39:34;;;;;;;12.40;11.30;;;;;;;;;;2048961;28;20187;-59
2022/06/27 04:40:48;;;;;;;11.95;10.85;;;;;;;;;;2072634;28;20193;-59
2022/06/27 04:41:51;;;;;;;11.18;10.07;;;;;;;;;;2067766;28;20196;-60
2022/06/27 04:42:53;;;;;;;11.77;10.77;;;;;;;;;;2066228;28;20686;-56
2022/06/27 04:43:54;;;;;;;11.63;10.60;;;;;;;;;;2064589;28;20276;-57
2022/06/27 04:44:55;;;;;;;11.77;10.88;;;;;;;;;;2056330;28;20178;-56
2022/06/27 04:45:55;;;;;;;12.20;11.10;;;;;;;;;;2064805;28;20170;-60
2022/06/27 04:47:16;;;;;;;11.45;10.45;;;;;;;;;;2051421;28;20183;-54
2022/06/27 04:48:34;;;;;;;12.23;11.13;;;;;;;;;;2073557;28;20168;-58
2022/06/27 04:49:35;;;;;;;12.38;11.05;;;;;;;;;;2064542;28;20186;-57
2022/06/27 04:50:36;;;;;;;11.98;10.98;;;;;;;;;;2056792;28;20194;-57
2022/06/27 04:51:37;;;;;;;12.38;11.15;;;;;;;;;;2064805;28;20173;-59
2022/06/27 04:52:38;;;;;;;12.52;11.43;;;;;;;;;;2071589;28;20570;-55
2022/06/27 04:53:40;;;;;;;12.65;11.65;;;;;;;;;;2064684;28;20184;-59
2022/06/27 04:54:41;;;;;;;11.90;10.80;;;;;;;;;;2071842;28;20199;-59
2022/06/27 04:55:41;;;;;;;13.60;12.38;;;;;;;;;;2064983;28;20174;-58
2022/06/27 04:56:43;;;;;;;12.48;11.38;;;;;;;;;;2066237;28;20191;-61
2022/06/27 04:57:45;;;;;;;11.60;10.70;;;;;;;;;;2065090;28;20182;-56
2022/06/27 04:58:45;;;;;;;12.38;11.40;;;;;;;;;;2064385;28;20188;-57
2022/06/27 04:59:50;;;;;;;12.45;11.38;;;;;;;;;;2056806;28;20174;-57
2022/06/27 05:01:09;;;;;;;12.57;11.50;;;;;;;;;;2057067;28;20805;-55
2022/06/27 05:02:23;;;;;;;12.85;11.75;;;;;;;;;;2063438;28;20618;-58
2022/06/27 05:03:23;;;;;;;14.27;12.88;;;;;;;;;;2062131;28;20177;-56
2022/06/27 05:04:33;;;;;;;14.13;12.88;;;;;;;;;;2065333;28;20197;-53
2022/06/27 05:05:34;;;;;;;13.18;11.98;;;;;;;;;;2060025;28;20582;-52
2022/06/27 05:06:35;;;;;;;13.90;12.52;;;;;;;;;;2061031;28;20224;-53
2022/06/27 05:07:38;;;;;;;13.05;11.95;;;;;;;;;;2049425;28;20261;-56
2022/06/27 05:08:40;;;;;;;14.15;12.88;;;;;;;;;;2064681;28;20549;-57
2022/06/27 05:09:40;;;;;;;13.85;12.57;;;;;;;;;;2053175;28;20201;-56
2022/06/27 05:10:40;;;;;;;13.98;12.68;;;;;;;;;;2060187;28;20204;-52
2022/06/27 05:11:41;;;;;;;14.20;12.90;;;;;;;;;;2072841;28;20176;-60
2022/06/27 05:12:42;;;;;;;15.98;14.45;;;;;;;;;;2066564;28;20178;-60
2022/06/27 05:13:43;;;;;;;17.23;15.63;;;;;;;;;;2058807;28;20174;-64
2022/06/27 05:15:18;;;;;;;14.35;13.10;;;;;;;;;;2067492;28;20268;-54
2022/06/27 05:16:20;;;;;;;15.55;14.15;;;;;;;;;;2068339;28;20173;-55
2022/06/27 05:17:24;;;;;;;15.25;13.95;;;;;;;;;;2065159;28;20204;-58
2022/06/27 05:18:24;;;;;;;15.82;14.35;;;;;;;;;;2058670;28;20170;-51
2022/06/27 05:19:26;;;;;;;15.32;13.95;;;;;;;;;;2058864;28;20181;-61
2022/06/27 05:20:28;;;;;;;19.67;14.85;;;;;;;;;;2056641;28;20340;-58
2022/06/27 05:21:28;;;;;;;16.15;14.65;;;;;;;;;;2056931;28;20177;-53
2022/06/27 05:22:29;;;;;;;15.25;13.63;;;;;;;;;;2058700;28;20198;-57
2022/06/27 05:23:29;;;;;;;15.00;13.77;;;;;;;;;;2072903;28;20633;-55
2022/06/27 05:24:30;;;;;;;14.98;13.50;;;;;;;;;;2070163;28;20634;-53
2022/06/27 05:25:30;;;;;;;14.68;13.48;;;;;;;;;;2065164;28;20181;-52
2022/06/27 05:26:30;;;;;;;16.10;14.45;;;;;;;;;;2064400;28;20208;-51
2022/06/27 05:27:31;;;;;;;14.18;12.82;;;;;;;;;;2072938;28;20177;-53
2022/06/27 05:28:31;;;;;;;15.32;14.02;;;;;;;;;;2072689;28;20176;-53
2022/06/27 05:29:32;;;;;;;15.88;14.48;;;;;;;;;;2064613;28;20205;-55
2022/06/27 05:30:33;;;;;;;14.43;13.23;;;;;;;;;;2064403;28;20197;-63
2022/06/27 05:31:35;;;;;;;15.18;13.63;;;;;;;;;;2072574;28;20687;-54
2022/06/27 05:32:36;;;;;;;14.88;13.55;;;;;;;;;;2063664;28;20888;-53
2022/06/27 05:33:37;;;;;;;15.40;14.05;;;;;;;;;;2056558;28;20256;-58
2022/06/27 05:34:38;;;;;;;14.40;13.18;;;;;;;;;;2063618;28;20639;-52
2022/06/27 05:35:38;;;;;;;15.57;14.27;;;;;;;;;;2056637;28;20215;-56
2022/06/27 05:36:40;;;;;;;14.85;13.65;;;;;;;;;;2065176;28;20169;-56
2022/06/27 05:37:44;;;;;;;15.20;13.73;;;;;;;;;;2073389;28;20922;-56
2022/06/27 05:38:44;;;;;;;15.45;14.00;;;;;;;;;;2073309;28;20177;-57
2022/06/27 05:39:46;;;;;;;15.65;14.25;;;;;;;;;;2066086;28;20204;-52
2022/06/27 05:40:46;;;;;;;14.98;13.70;;;;;;;;;;2065788;28;20192;-57
2022/06/27 05:41:48;;;;;;;14.95;13.52;;;;;;;;;;2069746;28;20204;-54
2022/06/27 05:42:57;;;;;;;18.33;16.67;;;;;;;;;;2067266;28;20245;-54
2022/06/27 05:43:59;;;;;;;15.45;14.15;;;;;;;;;;2074222;28;20169;-60
2022/06/27 05:45:00;;;;;;;19.77;17.83;;;;;;;;;;2066356;28;20617;-57
2022/06/27 05:46:02;;;;;;;17.25;15.65;;;;;;;;;;2070350;28;20177;-57
2022/06/27 05:47:15;;;;;;;19.67;17.88;;;;;;;;;;2072530;28;20169;-56
2022/06/27 05:48:39;;;;;;;16.02;14.65;;;;;;;;;;2058606;28;20264;-53
2022/06/27 05:49:53;;;;;;;18.33;16.80;;;;;;;;;;2066043;28;20172;-55
2022/06/27 05:50:53;;;;;;;16.02;14.60;;;;;;;;;;2073022;28;20627;-58
2022/06/27 05:51:57;;;;;;;17.45;16.05;;;;;;;;;;2061112;28;20213;-52
2022/06/27 05:52:59;;;;;;;16.48;15.02;;;;;;;;;;2061671;28;20190;-51
2022/06/27 05:54:01;;;;;;;18.33;16.73;;;;;;;;;;2088338;28;20222;-58
2022/06/27 05:55:02;;;;;;;16.88;15.45;;;;;;;;;;2069742;28;20176;-59
2022/06/27 05:56:03;;;;;;;17.00;15.57;;;;;;;;;;2066172;28;20627;-56
2022/06/27 05:57:05;;;;;;;17.73;16.02;;;;;;;;;;2069745;28;20815;-59
2022/06/27 05:58:08;;;;;;;17.58;15.95;;;;;;;;;;2066192;28;20551;-55
2022/06/27 05:59:09;;;;;;;17.25;15.65;;;;;;;;;;2074582;28;20181;-54
2022/06/27 06:00:13;;;;;;;17.95;16.40;;;;;;;;;;2073781;28;20264;-60
2022/06/27 06:01:17;;;;;;;16.30;14.90;;;;;;;;;;2076538;28;20172;-55
2022/06/27 06:02:18;;;;;;;17.20;15.80;;;;;;;;;;2074014;28;20657;-57
2022/06/27 06:03:20;;;;;;;17.23;15.52;;;;;;;;;;2074220;28;20181;-54
2022/06/27 06:04:21;;;;;;;16.67;15.38;;;;;;;;;;2072217;28;20219;-55
2022/06/27 06:05:22;;;;;;;20.48;18.58;;;;;;;;;;2074032;28;20173;-55
2022/06/27 06:06:24;;;;;;;18.90;17.30;;;;;;;;;;2071776;28;20193;-55
2022/06/27 06:07:25;;;;;;;18.63;17.02;;;;;;;;;;2067603;28;20228;-52
2022/06/27 06:08:26;;;;;;;18.40;16.65;;;;;;;;;;2066066;28;20226;-54
2022/06/27 06:09:27;;;;;;;18.42;16.73;;;;;;;;;;2082446;28;20602;-59